createdAt,value
2023-05-05T00:01:26.124Z,12.10
2023-05-05T00:03:53.525Z,12.10
2023-05-05T00:06:20.601Z,12.00
2023-05-05T00:08:47.558Z,12.00
2023-05-05T00:11:14.361Z,12.00
2023-05-05T00:13:41.311Z,12.00
2023-05-05T00:16:08.444Z,12.00
2023-05-05T00:18:35.461Z,12.40
2023-05-05T00:21:02.392Z,12.40
2023-05-05T00:23:29.322Z,12.00
2023-05-05T00:25:56.554Z,11.90
2023-05-05T00:28:23.891Z,11.90
2023-05-05T00:30:51.175Z,11.80
2023-05-05T00:33:18.088Z,11.80
2023-05-05T00:35:44.945Z,11.80
2023-05-05T00:38:11.981Z,11.70
2023-05-05T00:40:38.950Z,11.60
2023-05-05T00:43:05.813Z,12.00
2023-05-05T00:45:32.736Z,11.80
2023-05-05T00:48:01.328Z,11.50
2023-05-05T00:50:30.719Z,12.00
2023-05-05T00:53:07.425Z,11.40
2023-05-05T00:55:35.652Z,11.30
2023-05-05T00:58:04.034Z,11.80
2023-05-05T01:00:31.439Z,11.30
2023-05-05T01:02:59.496Z,11.50
2023-05-05T01:05:27.793Z,11.20
2023-05-05T01:08:03.288Z,11.20
2023-05-05T01:10:40.658Z,11.10
2023-05-05T01:13:23.700Z,11.10
2023-05-05T01:16:10.671Z,11.40
2023-05-05T01:18:46.843Z,11.00
2023-05-05T01:21:23.440Z,11.00
2023-05-05T01:23:53.051Z,11.00
2023-05-05T01:26:47.945Z,11.00
2023-05-05T01:29:33.358Z,11.00
2023-05-05T01:32:07.858Z,11.00
2023-05-05T01:34:40.273Z,11.00
2023-05-05T01:37:22.853Z,11.20
2023-05-05T01:39:54.362Z,11.10
2023-05-05T01:42:22.285Z,11.40
2023-05-05T01:44:50.844Z,10.90
2023-05-05T01:47:21.159Z,10.90
2023-05-05T01:49:48.644Z,11.20
2023-05-05T01:52:16.659Z,11.40
2023-05-05T01:54:46.550Z,10.90
2023-05-05T01:57:15.519Z,10.90
2023-05-05T01:59:42.475Z,10.90
2023-05-05T02:02:12.241Z,11.50
2023-05-05T02:04:43.443Z,10.90
2023-05-05T02:07:12.803Z,11.50
2023-05-05T02:09:41.002Z,10.90
2023-05-05T02:12:08.896Z,10.90
2023-05-05T02:14:36.955Z,10.80
2023-05-05T02:17:04.717Z,10.80
2023-05-05T02:19:39.409Z,11.20
2023-05-05T02:22:06.601Z,10.70
2023-05-05T02:24:33.778Z,11.20
2023-05-05T02:27:04.040Z,10.70
2023-05-05T02:29:45.728Z,10.70
2023-05-05T02:32:22.757Z,10.80
2023-05-05T02:34:51.957Z,10.80
2023-05-05T02:37:23.030Z,11.10
2023-05-05T02:40:03.885Z,10.80
2023-05-05T02:42:41.406Z,10.80
2023-05-05T02:45:12.487Z,10.80
2023-05-05T02:47:39.468Z,10.90
2023-05-05T02:50:08.382Z,11.10
2023-05-05T02:52:36.035Z,10.80
2023-05-05T02:55:04.509Z,11.10
2023-05-05T02:57:34.414Z,10.80
2023-05-05T03:00:28.184Z,10.90
2023-05-05T03:03:30.900Z,10.80
2023-05-05T03:06:07.309Z,10.80
2023-05-05T03:08:54.679Z,10.80
2023-05-05T03:11:31.811Z,10.70
2023-05-05T03:14:13.798Z,10.70
2023-05-05T03:16:43.536Z,10.70
2023-05-05T03:19:12.423Z,10.60
2023-05-05T03:21:40.518Z,10.60
2023-05-05T03:24:19.362Z,10.60
2023-05-05T03:26:47.489Z,10.60
2023-05-05T03:29:15.225Z,10.60
2023-05-05T03:31:42.629Z,10.90
2023-05-05T03:34:09.647Z,10.90
2023-05-05T03:36:38.730Z,10.70
2023-05-05T03:39:05.683Z,10.90
2023-05-05T03:41:32.584Z,11.00
2023-05-05T03:43:59.583Z,11.00
2023-05-05T03:46:26.642Z,11.00
2023-05-05T03:48:53.627Z,10.70
2023-05-05T03:51:20.552Z,10.70
2023-05-05T03:53:47.563Z,10.70
2023-05-05T03:56:14.508Z,10.70
2023-05-05T03:58:42.129Z,10.70
2023-05-05T04:01:09.219Z,10.70
2023-05-05T04:03:36.179Z,10.80
2023-05-05T04:06:03.174Z,11.00
2023-05-05T04:08:30.170Z,10.40
2023-05-05T04:10:57.511Z,10.50
2023-05-05T04:13:24.785Z,10.90
2023-05-05T04:15:51.745Z,10.90
2023-05-05T04:18:18.773Z,10.80
2023-05-05T04:20:46.740Z,10.80
2023-05-05T04:23:13.663Z,10.90
2023-05-05T04:25:40.748Z,11.20
2023-05-05T04:28:07.640Z,10.90
2023-05-05T04:30:34.634Z,10.90
2023-05-05T04:33:01.677Z,11.10
2023-05-05T04:35:28.629Z,10.60
2023-05-05T04:37:55.614Z,11.30
2023-05-05T04:40:22.612Z,11.00
2023-05-05T04:42:49.554Z,11.00
2023-05-05T04:45:16.664Z,11.40
2023-05-05T04:47:43.679Z,11.20
2023-05-05T04:50:11.523Z,11.20
2023-05-05T04:52:38.587Z,11.30
2023-05-05T04:55:06.329Z,11.30
2023-05-05T04:57:33.299Z,11.40
2023-05-05T05:00:01.758Z,11.40
2023-05-05T05:02:29.000Z,11.90
2023-05-05T05:04:56.174Z,12.20
2023-05-05T05:07:23.232Z,12.40
2023-05-05T05:09:50.210Z,12.80
2023-05-05T05:12:17.131Z,13.60
2023-05-05T05:14:44.121Z,14.90
2023-05-05T05:17:11.094Z,15.70
2023-05-05T05:19:38.243Z,16.80
2023-05-05T05:22:05.264Z,17.80
2023-05-05T05:24:32.208Z,18.90
2023-05-05T05:27:12.854Z,19.60
2023-05-05T05:29:49.121Z,20.30
2023-05-05T05:32:16.273Z,21.10
2023-05-05T05:34:43.158Z,22.10
2023-05-05T05:37:10.271Z,23.00
2023-05-05T05:39:37.181Z,23.40
2023-05-05T05:42:04.205Z,23.60
2023-05-05T05:44:31.177Z,24.20
2023-05-05T05:46:58.149Z,24.70
2023-05-05T05:49:25.160Z,24.70
2023-05-05T05:51:52.048Z,25.20
2023-05-05T05:54:18.989Z,25.30
2023-05-05T05:56:45.948Z,25.60
2023-05-05T05:59:12.897Z,25.30
2023-05-05T06:01:40.455Z,25.90
2023-05-05T06:04:07.595Z,26.50
2023-05-05T06:06:34.740Z,27.20
2023-05-05T06:09:01.653Z,27.70
2023-05-05T06:11:28.600Z,28.00
2023-05-05T06:13:55.568Z,28.20
2023-05-05T06:16:22.568Z,28.50
2023-05-05T06:18:49.739Z,28.90
2023-05-05T06:21:20.573Z,28.90
2023-05-05T06:23:47.740Z,29.10
2023-05-05T06:26:14.732Z,29.30
2023-05-05T06:28:42.136Z,29.60
2023-05-05T06:31:09.055Z,30.00
2023-05-05T06:33:36.027Z,30.50
2023-05-05T06:36:05.691Z,31.10
2023-05-05T06:38:32.660Z,31.60
2023-05-05T06:40:59.808Z,32.30
2023-05-05T06:43:27.216Z,32.90
2023-05-05T06:45:54.472Z,33.60
2023-05-05T06:48:22.189Z,34.30
2023-05-05T06:50:49.237Z,35.00
2023-05-05T06:53:18.757Z,35.20
2023-05-05T06:55:47.430Z,35.40
2023-05-05T06:58:14.397Z,35.70
2023-05-05T07:00:42.217Z,36.00
2023-05-05T07:03:09.362Z,36.10
2023-05-05T07:05:36.848Z,35.70
2023-05-05T07:08:04.195Z,35.40
2023-05-05T07:10:31.851Z,35.00
2023-05-05T07:12:58.775Z,35.00
2023-05-05T07:15:29.233Z,34.60
2023-05-05T07:17:57.158Z,34.50
2023-05-05T07:20:24.597Z,35.30
2023-05-05T07:22:51.582Z,35.70
2023-05-05T07:25:18.604Z,36.40
2023-05-05T07:27:48.132Z,36.30
2023-05-05T07:30:18.097Z,35.30
2023-05-05T07:32:45.903Z,35.40
2023-05-05T07:35:12.985Z,35.50
2023-05-05T07:37:39.913Z,35.70
2023-05-05T07:40:08.063Z,35.00
2023-05-05T07:42:35.503Z,33.30
2023-05-05T07:45:02.572Z,31.90
2023-05-05T07:47:29.640Z,31.30
2023-05-05T07:49:57.249Z,30.90
2023-05-05T07:52:37.345Z,31.20
2023-05-05T07:55:11.042Z,31.80
2023-05-05T07:57:38.623Z,32.10
2023-05-05T08:00:06.536Z,31.60
2023-05-05T08:02:33.730Z,30.60
2023-05-05T08:05:00.798Z,29.80
2023-05-05T08:07:27.973Z,29.10
2023-05-05T08:09:54.886Z,28.60
2023-05-05T08:12:21.918Z,28.20
2023-05-05T08:14:48.774Z,27.70
2023-05-05T08:17:18.349Z,27.40
2023-05-05T08:19:45.305Z,27.00
2023-05-05T08:22:12.285Z,26.50
2023-05-05T08:24:39.188Z,25.80
2023-05-05T08:27:06.159Z,25.10
2023-05-05T08:29:33.141Z,24.50
2023-05-05T08:32:00.233Z,23.90
2023-05-05T08:34:27.323Z,23.00
2023-05-05T08:36:54.272Z,23.30
2023-05-05T08:39:21.221Z,23.50
2023-05-05T08:41:48.313Z,23.50
2023-05-05T08:44:15.553Z,23.40
2023-05-05T08:46:44.823Z,23.20
2023-05-05T08:49:16.485Z,23.00
2023-05-05T08:51:44.512Z,22.90
2023-05-05T08:54:19.024Z,22.60
2023-05-05T08:56:49.564Z,22.40
2023-05-05T08:59:17.362Z,22.30
2023-05-05T09:01:45.058Z,22.20
2023-05-05T09:04:11.970Z,22.00
2023-05-05T09:06:39.014Z,21.90
2023-05-05T09:09:06.966Z,21.80
2023-05-05T09:11:35.276Z,22.10
2023-05-05T09:14:02.167Z,22.10
2023-05-05T09:16:29.140Z,22.20
2023-05-05T09:19:05.128Z,22.20
2023-05-05T09:21:32.413Z,22.20
2023-05-05T09:24:09.844Z,22.30
2023-05-05T09:26:45.515Z,22.20
2023-05-05T09:29:20.252Z,22.10
2023-05-05T09:32:11.106Z,22.20
2023-05-05T09:34:39.305Z,22.10
2023-05-05T09:37:06.497Z,22.10
2023-05-05T09:39:33.506Z,22.40
2023-05-05T09:42:00.466Z,22.70
2023-05-05T09:44:35.656Z,23.00
2023-05-05T09:47:25.950Z,23.20
2023-05-05T09:49:59.583Z,23.40
2023-05-05T09:52:26.722Z,23.40
2023-05-05T09:54:57.337Z,23.30
2023-05-05T09:57:32.817Z,23.40
2023-05-05T10:00:01.590Z,23.40
2023-05-05T10:02:36.633Z,23.40
2023-05-05T10:05:13.241Z,23.50
2023-05-05T10:07:42.380Z,23.50
2023-05-05T10:10:17.144Z,23.70
2023-05-05T10:12:46.524Z,24.10
2023-05-05T10:15:15.733Z,24.10
2023-05-05T10:20:21.132Z,24.00
2023-05-05T10:22:53.280Z,24.10
2023-05-05T10:25:49.883Z,24.20
2023-05-05T10:28:26.152Z,24.30
2023-05-05T10:30:56.743Z,24.40
2023-05-05T10:33:56.764Z,24.40
2023-05-05T10:36:25.471Z,24.30
2023-05-05T10:38:56.907Z,24.70
2023-05-05T10:41:24.937Z,24.90
2023-05-05T10:43:55.193Z,25.00
2023-05-05T10:46:22.307Z,25.10
2023-05-05T10:49:20.324Z,25.20
2023-05-05T10:52:13.911Z,25.30
2023-05-05T10:54:49.386Z,25.30
2023-05-05T10:57:22.359Z,25.20
2023-05-05T10:59:49.250Z,25.20
2023-05-05T11:02:24.841Z,25.20
2023-05-05T11:05:08.310Z,25.20
2023-05-05T11:07:36.238Z,25.20
2023-05-05T11:10:05.239Z,25.40
2023-05-05T11:12:52.851Z,25.30
2023-05-05T11:15:31.436Z,25.20
2023-05-05T11:17:59.535Z,25.10
2023-05-05T11:20:49.533Z,24.90
2023-05-05T11:23:20.152Z,24.40
2023-05-05T11:25:47.348Z,24.10
2023-05-05T11:28:56.781Z,23.90
2023-05-05T11:31:24.009Z,23.90
2023-05-05T11:33:51.367Z,24.00
2023-05-05T11:36:19.943Z,24.10
2023-05-05T11:39:04.312Z,24.00
2023-05-05T11:41:34.150Z,24.20
2023-05-05T11:44:16.964Z,24.40
2023-05-05T11:46:52.836Z,24.50
2023-05-05T11:49:33.680Z,24.60
2023-05-05T11:52:04.593Z,24.50
2023-05-05T11:54:32.582Z,24.40
2023-05-05T11:57:05.427Z,24.40
2023-05-05T11:59:32.912Z,24.50
2023-05-05T12:02:00.286Z,24.60
2023-05-05T12:04:27.358Z,24.80
2023-05-05T12:06:55.489Z,24.90
2023-05-05T12:09:23.233Z,25.00
2023-05-05T12:11:55.745Z,25.00
2023-05-05T12:14:24.878Z,24.90
2023-05-05T12:17:08.482Z,25.00
2023-05-05T12:19:36.146Z,24.90
2023-05-05T12:22:04.522Z,25.00
2023-05-05T12:24:31.744Z,25.00
2023-05-05T12:27:12.171Z,24.90
2023-05-05T12:29:39.528Z,24.70
2023-05-05T12:32:06.566Z,24.60
2023-05-05T12:34:33.742Z,24.50
2023-05-05T12:37:01.571Z,24.40
2023-05-05T12:39:36.279Z,24.30
2023-05-05T12:42:04.560Z,24.10
2023-05-05T12:44:36.171Z,23.70
2023-05-05T12:47:03.266Z,23.40
2023-05-05T12:49:34.235Z,23.10
2023-05-05T12:52:01.567Z,22.70
2023-05-05T12:54:31.316Z,22.30
2023-05-05T12:56:58.574Z,22.00
2023-05-05T12:59:25.477Z,21.70
2023-05-05T13:01:54.881Z,21.40
2023-05-05T13:04:23.514Z,21.00
2023-05-05T13:07:11.657Z,20.60
2023-05-05T13:09:38.823Z,20.20
2023-05-05T13:12:08.150Z,20.00
2023-05-05T13:14:36.404Z,20.00
2023-05-05T13:17:03.365Z,20.00
2023-05-05T13:19:30.539Z,19.90
2023-05-05T13:21:58.906Z,19.90
2023-05-05T13:24:42.089Z,20.00
2023-05-05T13:27:13.432Z,20.20
2023-05-05T13:29:41.779Z,20.60
2023-05-05T13:32:12.698Z,21.00
2023-05-05T13:34:39.755Z,21.50
2023-05-05T13:37:07.510Z,22.10
2023-05-05T13:39:34.851Z,22.60
2023-05-05T13:42:01.906Z,23.10
2023-05-05T13:44:30.045Z,23.40
2023-05-05T13:46:57.659Z,23.70
2023-05-05T13:49:24.838Z,23.90
2023-05-05T13:51:52.046Z,24.00
2023-05-05T13:54:18.879Z,24.20
2023-05-05T13:56:46.253Z,24.30
2023-05-05T13:59:13.230Z,24.50
2023-05-05T14:01:40.237Z,24.60
2023-05-05T14:04:07.361Z,24.70
2023-05-05T14:06:36.068Z,24.90
2023-05-05T14:09:06.217Z,24.90
2023-05-05T14:11:33.662Z,24.90
2023-05-05T14:14:00.812Z,25.00
2023-05-05T14:16:27.879Z,25.10
2023-05-05T14:18:54.965Z,25.10
2023-05-05T14:21:22.155Z,25.20
2023-05-05T14:23:49.044Z,25.30
2023-05-05T14:26:16.050Z,25.40
2023-05-05T14:28:43.625Z,25.40
2023-05-05T14:31:11.234Z,25.40
2023-05-05T14:33:38.647Z,25.50
2023-05-05T14:36:05.775Z,25.50
2023-05-05T14:38:32.707Z,25.40
2023-05-05T14:40:59.666Z,25.30
2023-05-05T14:43:26.724Z,24.90
2023-05-05T14:45:53.735Z,24.70
2023-05-05T14:48:22.406Z,24.60
2023-05-05T14:50:49.900Z,24.60
2023-05-05T14:53:18.829Z,24.60
2023-05-05T14:55:45.702Z,24.60
2023-05-05T14:58:12.601Z,24.60
2023-05-05T15:00:39.536Z,24.70
2023-05-05T15:03:06.775Z,24.60
2023-05-05T15:05:33.842Z,24.50
2023-05-05T15:08:00.866Z,24.40
2023-05-05T15:10:28.939Z,24.50
2023-05-05T15:12:55.868Z,24.60
2023-05-05T15:15:22.787Z,24.70
2023-05-05T15:17:49.650Z,24.70
2023-05-05T15:20:16.512Z,24.80
2023-05-05T15:22:48.410Z,24.90
2023-05-05T15:25:16.379Z,25.00
2023-05-05T15:27:43.188Z,25.00
2023-05-05T15:30:11.399Z,25.00
2023-05-05T15:32:38.395Z,25.10
2023-05-05T15:35:06.121Z,25.00
2023-05-05T15:37:33.157Z,24.80
2023-05-05T15:40:00.236Z,24.40
2023-05-05T15:42:27.123Z,24.10
2023-05-05T15:44:54.002Z,24.00
2023-05-05T15:47:20.830Z,23.80
2023-05-05T15:49:47.695Z,23.70
2023-05-05T15:52:14.586Z,23.60
2023-05-05T15:54:41.434Z,23.50
2023-05-05T15:57:08.465Z,23.30
2023-05-05T15:59:35.727Z,23.30
2023-05-05T16:02:02.808Z,23.20
2023-05-05T16:04:29.840Z,23.00
2023-05-05T16:06:57.985Z,22.90
2023-05-05T16:09:24.932Z,22.80
2023-05-05T16:11:54.276Z,22.80
2023-05-05T16:14:21.389Z,22.80
2023-05-05T16:16:48.526Z,22.80
2023-05-05T16:19:16.817Z,22.80
2023-05-05T16:21:43.735Z,22.80
2023-05-05T16:24:10.833Z,22.80
2023-05-05T16:26:37.750Z,22.80
2023-05-05T16:29:04.714Z,22.80
2023-05-05T16:31:33.904Z,22.70
2023-05-05T16:34:00.915Z,22.70
2023-05-05T16:36:28.460Z,22.50
2023-05-05T16:38:56.084Z,22.30
2023-05-05T16:41:23.319Z,22.00
2023-05-05T16:43:50.577Z,21.60
2023-05-05T16:46:18.245Z,21.10
2023-05-05T16:48:45.932Z,20.60
2023-05-05T16:51:12.830Z,20.20
2023-05-05T16:53:40.050Z,19.80
2023-05-05T16:56:07.106Z,19.50
2023-05-05T16:58:33.955Z,19.30
2023-05-05T17:01:02.675Z,19.20
2023-05-05T17:03:29.550Z,19.10
2023-05-05T17:05:56.565Z,19.00
2023-05-05T17:08:23.582Z,18.70
2023-05-05T17:10:50.489Z,18.60
2023-05-05T17:13:17.478Z,18.50
2023-05-05T17:15:44.803Z,18.40
2023-05-05T17:18:11.916Z,18.20
2023-05-05T17:20:38.877Z,18.10
2023-05-05T17:23:05.774Z,18.00
2023-05-05T17:25:33.684Z,17.70
2023-05-05T17:28:00.666Z,17.40
2023-05-05T17:30:27.655Z,17.20
2023-05-05T17:32:54.600Z,17.00
2023-05-05T17:35:21.722Z,16.90
2023-05-05T17:37:48.644Z,17.00
2023-05-05T17:40:15.565Z,16.70
2023-05-05T17:42:43.188Z,16.70
2023-05-05T17:45:10.866Z,16.70
2023-05-05T17:47:41.756Z,16.60
2023-05-05T17:50:10.989Z,16.50
2023-05-05T17:52:38.020Z,16.50
2023-05-05T17:55:05.408Z,16.50
2023-05-05T17:57:32.780Z,16.40
2023-05-05T18:00:03.921Z,16.60
2023-05-05T18:02:31.353Z,16.40
2023-05-05T18:04:58.425Z,16.50
2023-05-05T18:07:26.181Z,16.40
2023-05-05T18:09:56.288Z,16.30
2023-05-05T18:12:23.304Z,16.40
2023-05-05T18:14:50.358Z,16.40
2023-05-05T18:17:17.253Z,16.30
2023-05-05T18:19:46.588Z,16.30
2023-05-05T18:22:14.914Z,16.20
2023-05-05T18:24:42.504Z,16.20
2023-05-05T18:27:09.652Z,16.10
2023-05-05T18:29:36.972Z,16.20
2023-05-05T18:32:11.376Z,16.10
2023-05-05T18:34:38.498Z,16.00
2023-05-05T18:37:06.996Z,15.90
2023-05-05T18:39:33.983Z,15.80
2023-05-05T18:42:01.222Z,15.70
2023-05-05T18:44:28.205Z,15.70
2023-05-05T18:46:55.506Z,15.70
2023-05-05T18:49:23.228Z,15.70
2023-05-05T18:51:50.413Z,15.60
2023-05-05T18:54:17.436Z,15.60
2023-05-05T18:56:44.343Z,15.50
2023-05-05T18:59:11.710Z,15.50
2023-05-05T19:01:38.793Z,15.50
2023-05-05T19:04:15.560Z,15.50
2023-05-05T19:06:52.314Z,15.40
2023-05-05T19:09:19.476Z,15.50
2023-05-05T19:11:46.414Z,15.50
2023-05-05T19:14:13.419Z,15.40
2023-05-05T19:16:40.436Z,15.40
2023-05-05T19:19:07.356Z,15.40
2023-05-05T19:21:34.273Z,15.40
2023-05-05T19:24:01.152Z,15.40
2023-05-05T19:26:28.258Z,15.30
2023-05-05T19:28:55.192Z,15.20
2023-05-05T19:31:27.632Z,15.20
2023-05-05T19:34:00.835Z,15.20
2023-05-05T19:36:28.306Z,15.10
2023-05-05T19:38:55.885Z,15.10
2023-05-05T19:41:23.266Z,15.10
2023-05-05T19:43:50.190Z,15.10
2023-05-05T19:46:17.321Z,15.00
2023-05-05T19:48:44.383Z,15.00
2023-05-05T19:51:11.487Z,15.00
2023-05-05T19:53:40.123Z,15.00
2023-05-05T19:56:07.422Z,15.00
2023-05-05T19:58:53.756Z,14.90
2023-05-05T20:01:20.806Z,14.90
2023-05-05T20:03:47.805Z,15.00
2023-05-05T20:06:14.892Z,14.90
2023-05-05T20:08:41.813Z,14.80
2023-05-05T20:11:08.716Z,15.00
2023-05-05T20:13:38.143Z,14.80
2023-05-05T20:16:06.568Z,14.80
2023-05-05T20:18:33.611Z,14.80
2023-05-05T20:21:01.848Z,14.90
2023-05-05T20:23:29.123Z,14.80
2023-05-05T20:25:56.646Z,14.80
2023-05-05T20:28:23.767Z,14.80
2023-05-05T20:30:50.920Z,14.80
2023-05-05T20:33:17.887Z,14.80
2023-05-05T20:35:44.803Z,14.70
2023-05-05T20:38:11.725Z,14.70
2023-05-05T20:40:38.669Z,14.70
2023-05-05T20:43:05.728Z,14.60
2023-05-05T20:45:34.525Z,14.50
2023-05-05T20:48:01.852Z,14.40
2023-05-05T20:50:29.004Z,14.50
2023-05-05T20:52:56.097Z,14.40
2023-05-05T20:55:23.933Z,14.50
2023-05-05T20:57:50.952Z,14.50
2023-05-05T21:00:18.074Z,14.50
2023-05-05T21:02:45.099Z,14.50
2023-05-05T21:05:12.634Z,14.50
2023-05-05T21:07:39.582Z,14.50
2023-05-05T21:10:07.456Z,14.60
2023-05-05T21:12:34.796Z,14.50
2023-05-05T21:15:02.228Z,14.50
2023-05-05T21:17:29.578Z,14.50
2023-05-05T21:19:56.941Z,14.40
2023-05-05T21:22:23.945Z,14.50
2023-05-05T21:24:51.161Z,14.50
2023-05-05T21:27:18.270Z,14.50
2023-05-05T21:29:45.356Z,14.50
2023-05-05T21:32:12.846Z,14.50
2023-05-05T21:34:39.895Z,14.50
2023-05-05T21:37:07.166Z,14.50
2023-05-05T21:39:35.291Z,14.50
2023-05-05T21:42:02.202Z,14.60
2023-05-05T21:44:29.221Z,14.60
2023-05-05T21:46:56.153Z,14.60
2023-05-05T21:49:23.109Z,14.60
2023-05-05T21:51:50.220Z,14.60
2023-05-05T21:54:17.247Z,14.50
2023-05-05T21:56:44.172Z,14.50
2023-05-05T21:59:11.161Z,14.60
2023-05-05T22:01:38.162Z,14.60
2023-05-05T22:04:05.225Z,14.80
2023-05-05T22:06:32.557Z,14.70
2023-05-05T22:08:59.798Z,14.80
2023-05-05T22:11:26.683Z,14.90
2023-05-05T22:13:53.587Z,14.90
2023-05-05T22:16:20.648Z,14.90
2023-05-05T22:18:47.510Z,14.90
2023-05-05T22:21:14.430Z,14.90
2023-05-05T22:23:44.099Z,15.00
2023-05-05T22:26:11.631Z,15.00
2023-05-05T22:28:38.769Z,15.00
2023-05-05T22:31:05.772Z,15.00
2023-05-05T22:33:33.030Z,15.00
2023-05-05T22:35:59.979Z,15.00
2023-05-05T22:38:26.817Z,15.00
2023-05-05T22:40:53.702Z,14.90
2023-05-05T22:43:20.631Z,15.10
2023-05-05T22:45:47.790Z,14.90
2023-05-05T22:48:15.111Z,14.90
2023-05-05T22:50:42.285Z,14.90
2023-05-05T22:53:09.205Z,14.80
2023-05-05T22:55:36.109Z,14.80
2023-05-05T22:58:03.117Z,14.70
2023-05-05T23:00:30.326Z,14.60
2023-05-05T23:02:57.418Z,14.60
2023-05-05T23:05:24.448Z,14.50
2023-05-05T23:07:51.545Z,14.50
2023-05-05T23:10:18.616Z,14.50
2023-05-05T23:12:45.722Z,14.50
2023-05-05T23:15:12.933Z,14.50
2023-05-05T23:17:39.974Z,14.40
2023-05-05T23:20:09.566Z,14.40
2023-05-05T23:22:36.440Z,14.40
2023-05-05T23:25:03.518Z,14.40
2023-05-05T23:27:30.901Z,14.30
2023-05-05T23:29:57.864Z,14.30
2023-05-05T23:32:24.899Z,14.30
2023-05-05T23:34:51.852Z,14.20
2023-05-05T23:37:19.078Z,14.30
2023-05-05T23:39:46.023Z,14.30
2023-05-05T23:42:12.960Z,14.30
2023-05-05T23:44:39.961Z,14.40
2023-05-05T23:47:07.067Z,14.40
2023-05-05T23:49:33.974Z,14.40
2023-05-05T23:52:01.033Z,14.40
2023-05-05T23:54:27.934Z,14.40
2023-05-05T23:56:54.782Z,14.40
2023-05-05T23:59:21.679Z,14.50
